createdAt,value
2023-02-01T00:01:59.568Z,0.80
2023-02-01T00:04:26.502Z,1.20
2023-02-01T00:06:53.440Z,1.00
2023-02-01T00:09:20.174Z,1.10
2023-02-01T00:11:47.379Z,1.00
2023-02-01T00:14:14.423Z,1.17
2023-02-01T00:16:43.100Z,1.02
2023-02-01T00:19:15.155Z,0.90
2023-02-01T00:21:42.556Z,0.93
2023-02-01T00:24:10.861Z,1.10
2023-02-01T00:26:40.174Z,1.10
2023-02-01T00:29:12.558Z,0.90
2023-02-01T00:31:39.695Z,1.00
2023-02-01T00:34:06.934Z,1.38
2023-02-01T00:36:33.800Z,1.30
2023-02-01T00:39:00.807Z,1.17
2023-02-01T00:41:27.805Z,1.30
2023-02-01T00:43:54.645Z,1.20
2023-02-01T00:46:31.362Z,1.10
2023-02-01T00:48:58.293Z,0.90
2023-02-01T00:51:46.187Z,1.00
2023-02-01T00:54:14.846Z,1.13
2023-02-01T00:56:49.390Z,1.40
2023-02-01T00:59:30.508Z,1.02
2023-02-01T01:01:57.493Z,1.27
2023-02-01T01:04:24.235Z,1.00
2023-02-01T01:06:50.931Z,1.23
2023-02-01T01:09:17.586Z,1.50
2023-02-01T01:11:44.300Z,1.08
2023-02-01T01:14:12.212Z,1.10
2023-02-01T01:16:38.994Z,1.20
2023-02-01T01:19:06.502Z,1.05
2023-02-01T01:21:33.404Z,1.10
2023-02-01T01:24:00.729Z,1.00
2023-02-01T01:26:29.107Z,1.20
2023-02-01T01:28:57.439Z,1.30
2023-02-01T01:31:25.324Z,1.20
2023-02-01T01:33:54.176Z,1.02
2023-02-01T01:36:21.745Z,1.33
2023-02-01T01:38:48.846Z,1.23
2023-02-01T01:41:24.703Z,1.20
2023-02-01T01:44:05.200Z,1.40
2023-02-01T01:46:41.537Z,1.30
2023-02-01T01:49:13.808Z,1.20
2023-02-01T01:51:48.630Z,1.40
2023-02-01T01:54:21.176Z,1.40
2023-02-01T01:56:53.531Z,1.40
2023-02-01T01:59:23.126Z,1.70
2023-02-01T02:01:50.541Z,1.67
2023-02-01T02:04:17.819Z,1.48
2023-02-01T02:06:50.277Z,1.58
2023-02-01T02:09:18.449Z,1.30
2023-02-01T02:11:45.173Z,1.30
2023-02-01T02:14:15.952Z,1.58
2023-02-01T02:17:12.814Z,1.42
2023-02-01T02:19:51.729Z,1.27
2023-02-01T02:22:27.653Z,1.38
2023-02-01T02:25:32.035Z,1.48
2023-02-01T02:28:38.834Z,1.25
2023-02-01T02:31:20.063Z,1.33
2023-02-01T02:33:47.520Z,1.40
2023-02-01T02:36:24.720Z,1.50
2023-02-01T02:39:15.321Z,1.35
2023-02-01T02:44:58.900Z,1.30
2023-02-01T02:47:44.181Z,1.30
2023-02-01T02:50:36.867Z,1.50
2023-02-01T02:54:03.861Z,1.50
2023-02-01T02:56:49.301Z,1.80
2023-02-01T02:59:39.733Z,1.65
2023-02-01T03:02:27.105Z,1.88
2023-02-01T03:04:58.299Z,1.88
2023-02-01T03:07:45.249Z,1.95
2023-02-01T03:10:43.271Z,2.80
2023-02-01T03:13:19.131Z,2.22
2023-02-01T03:15:59.783Z,2.00
2023-02-01T03:18:38.010Z,1.40
2023-02-01T03:21:10.593Z,1.75
2023-02-01T03:23:41.402Z,1.83
2023-02-01T03:26:13.052Z,1.80
2023-02-01T03:28:46.312Z,1.90
2023-02-01T03:31:15.104Z,1.80
2023-02-01T03:33:43.053Z,1.60
2023-02-01T03:36:19.232Z,3.10
2023-02-01T03:39:12.034Z,1.58
2023-02-01T03:41:43.829Z,1.70
2023-02-01T03:44:16.476Z,2.00
2023-02-01T03:47:00.980Z,1.80
2023-02-01T03:49:35.854Z,1.83
2023-02-01T03:52:08.095Z,1.70
2023-02-01T03:54:36.201Z,1.95
2023-02-01T03:57:10.876Z,1.63
2023-02-01T03:59:46.225Z,1.83
2023-02-01T04:02:15.649Z,1.58
2023-02-01T04:04:44.463Z,1.90
2023-02-01T04:07:13.800Z,1.80
2023-02-01T04:09:40.573Z,2.03
2023-02-01T04:12:07.633Z,1.80
2023-02-01T04:14:34.417Z,2.30
2023-02-01T04:17:01.460Z,2.35
2023-02-01T04:19:28.287Z,2.83
2023-02-01T04:21:55.023Z,3.50
2023-02-01T04:24:21.789Z,3.05
2023-02-01T04:26:48.623Z,2.40
2023-02-01T04:29:15.384Z,1.98
2023-02-01T04:31:42.228Z,2.50
2023-02-01T04:34:09.017Z,2.80
2023-02-01T04:36:35.672Z,2.47
2023-02-01T04:39:02.335Z,2.38
2023-02-01T04:41:30.010Z,2.88
2023-02-01T04:43:56.787Z,2.90
2023-02-01T04:46:23.593Z,3.30
2023-02-01T04:48:50.711Z,3.10
2023-02-01T04:51:18.986Z,3.40
2023-02-01T04:53:46.035Z,3.72
2023-02-01T04:56:12.901Z,3.45
2023-02-01T04:58:39.625Z,4.72
2023-02-01T05:01:07.748Z,4.07
2023-02-01T05:03:34.725Z,3.85
2023-02-01T05:06:01.605Z,4.35
2023-02-01T05:08:29.824Z,4.40
2023-02-01T05:10:56.673Z,3.85
2023-02-01T05:13:41.906Z,4.63
2023-02-01T05:16:08.768Z,4.50
2023-02-01T05:18:35.567Z,4.80
2023-02-01T05:21:02.828Z,4.32
2023-02-01T05:23:29.841Z,4.60
2023-02-01T05:26:01.499Z,4.50
2023-02-01T05:28:29.414Z,3.50
2023-02-01T05:30:56.547Z,4.20
2023-02-01T05:33:23.293Z,3.70
2023-02-01T05:35:51.525Z,2.90
2023-02-01T05:38:18.433Z,2.60
2023-02-01T05:40:50.585Z,2.80
2023-02-01T05:43:17.473Z,2.78
2023-02-01T05:45:44.215Z,2.50
2023-02-01T05:48:10.928Z,2.50
2023-02-01T05:50:37.650Z,3.00
2023-02-01T05:53:09.131Z,2.83
2023-02-01T05:55:37.060Z,2.58
2023-02-01T05:58:04.684Z,2.58
2023-02-01T06:00:32.624Z,2.83
2023-02-01T06:02:59.807Z,2.95
2023-02-01T06:05:27.076Z,2.53
2023-02-01T06:07:54.033Z,3.00
2023-02-01T06:10:22.314Z,3.33
2023-02-01T06:12:49.491Z,2.90
2023-02-01T06:15:19.332Z,2.80
2023-02-01T06:17:46.991Z,3.13
2023-02-01T06:20:15.850Z,3.25
2023-02-01T06:22:42.697Z,3.65
2023-02-01T06:25:10.887Z,3.30
2023-02-01T06:27:38.561Z,3.30
2023-02-01T06:30:07.589Z,2.85
2023-02-01T06:32:35.081Z,3.45
2023-02-01T06:35:01.906Z,3.40
2023-02-01T06:37:30.385Z,3.28
2023-02-01T06:39:57.113Z,3.20
2023-02-01T06:42:24.076Z,3.10
2023-02-01T06:44:54.499Z,3.70
2023-02-01T06:47:21.317Z,3.17
2023-02-01T06:49:48.061Z,3.67
2023-02-01T06:52:14.914Z,3.30
2023-02-01T06:54:41.688Z,3.55
2023-02-01T06:57:08.410Z,3.65
2023-02-01T06:59:35.088Z,3.58
2023-02-01T07:02:01.868Z,3.67
2023-02-01T07:04:28.630Z,4.00
2023-02-01T07:06:55.382Z,4.43
2023-02-01T07:09:22.186Z,4.40
2023-02-01T07:11:48.950Z,4.20
2023-02-01T07:14:15.729Z,3.53
2023-02-01T07:16:42.430Z,4.07
2023-02-01T07:19:09.294Z,4.40
2023-02-01T07:21:35.994Z,3.72
2023-02-01T07:24:02.805Z,4.22
2023-02-01T07:26:29.647Z,3.70
2023-02-01T07:28:56.686Z,3.72
2023-02-01T07:31:23.698Z,3.90
2023-02-01T07:33:53.492Z,4.07
2023-02-01T07:36:20.744Z,4.68
2023-02-01T07:38:48.163Z,4.20
2023-02-01T07:41:15.778Z,4.20
2023-02-01T07:43:42.591Z,4.43
2023-02-01T07:46:10.871Z,4.00
2023-02-01T07:48:38.025Z,4.00
2023-02-01T07:51:16.205Z,3.90
2023-02-01T07:53:43.860Z,4.30
2023-02-01T07:56:24.003Z,5.05
2023-02-01T08:01:21.937Z,4.30
2023-02-01T08:03:50.116Z,3.97
2023-02-01T08:06:17.119Z,4.50
2023-02-01T08:08:46.185Z,4.13
2023-02-01T08:11:13.302Z,4.47
2023-02-01T08:13:40.363Z,4.30
2023-02-01T08:16:09.295Z,4.53
2023-02-01T08:18:38.586Z,4.25
2023-02-01T08:21:11.912Z,4.35
2023-02-01T08:23:40.287Z,5.28
2023-02-01T08:26:25.361Z,7.00
2023-02-01T08:29:04.199Z,6.05
2023-02-01T08:31:32.084Z,6.68
2023-02-01T08:34:01.653Z,12.98
2023-02-01T08:36:30.438Z,14.23
2023-02-01T08:38:58.096Z,10.70
2023-02-01T08:41:27.145Z,8.02
2023-02-01T08:43:55.223Z,6.20
2023-02-01T08:46:23.255Z,5.07
2023-02-01T08:48:50.685Z,5.00
2023-02-01T08:51:19.731Z,4.50
2023-02-01T08:53:47.014Z,4.60
2023-02-01T08:56:16.042Z,4.50
2023-02-01T08:58:43.230Z,4.72
2023-02-01T09:01:13.463Z,4.40
2023-02-01T09:03:40.499Z,4.40
2023-02-01T09:06:10.740Z,4.70
2023-02-01T09:08:38.918Z,4.05
2023-02-01T09:11:09.725Z,4.28
2023-02-01T09:13:37.244Z,4.13
2023-02-01T09:16:05.128Z,3.95
2023-02-01T09:18:33.484Z,4.25
2023-02-01T09:21:00.707Z,4.47
2023-02-01T09:23:28.461Z,4.40
2023-02-01T09:25:55.300Z,4.38
2023-02-01T09:28:22.044Z,4.30
2023-02-01T09:30:48.915Z,4.32
2023-02-01T09:33:15.707Z,4.40
2023-02-01T09:35:42.339Z,4.00
2023-02-01T09:38:09.240Z,3.88
2023-02-01T09:40:36.536Z,3.90
2023-02-01T09:43:22.480Z,3.92
2023-02-01T09:46:15.649Z,3.72
2023-02-01T09:48:46.338Z,3.53
2023-02-01T09:51:20.114Z,3.30
2023-02-01T09:53:56.536Z,3.60
2023-02-01T09:56:33.130Z,3.80
2023-02-01T09:59:27.650Z,3.70
2023-02-01T10:01:54.579Z,4.22
2023-02-01T10:04:21.773Z,3.70
2023-02-01T10:07:25.081Z,3.30
2023-02-01T10:10:01.823Z,3.38
2023-02-01T10:12:54.646Z,3.90
2023-02-01T10:15:38.411Z,3.45
2023-02-01T10:18:23.514Z,3.10
2023-02-01T10:21:09.901Z,3.20
2023-02-01T10:23:58.945Z,3.50
2023-02-01T10:26:43.962Z,3.45
2023-02-01T10:29:20.464Z,3.40
2023-02-01T10:31:48.022Z,3.25
2023-02-01T10:34:27.181Z,3.25
2023-02-01T10:37:00.955Z,3.58
2023-02-01T10:39:28.176Z,3.45
2023-02-01T10:41:57.128Z,3.20
2023-02-01T10:44:31.169Z,3.75
2023-02-01T10:47:00.770Z,4.00
2023-02-01T10:49:38.363Z,3.80
2023-02-01T10:52:37.227Z,3.67
2023-02-01T10:55:35.159Z,3.60
2023-02-01T10:58:04.327Z,4.53
2023-02-01T11:00:54.469Z,3.92
2023-02-01T11:04:01.377Z,4.13
2023-02-01T11:06:30.334Z,3.67
2023-02-01T11:09:00.698Z,3.70
2023-02-01T11:11:27.651Z,3.60
2023-02-01T11:14:01.277Z,3.30
2023-02-01T11:16:39.495Z,3.90
2023-02-01T11:19:06.997Z,3.70
2023-02-01T11:21:35.526Z,4.43
2023-02-01T11:24:07.818Z,4.05
2023-02-01T11:26:34.907Z,3.75
2023-02-01T11:29:11.260Z,3.55
2023-02-01T11:31:38.840Z,3.22
2023-02-01T11:34:27.607Z,3.65
2023-02-01T11:36:58.523Z,3.67
2023-02-01T11:39:29.619Z,3.60
2023-02-01T11:42:02.445Z,3.33
2023-02-01T11:44:43.446Z,3.90
2023-02-01T11:47:22.479Z,3.53
2023-02-01T11:49:51.927Z,3.83
2023-02-01T11:52:27.924Z,3.30
2023-02-01T11:55:18.358Z,3.78
2023-02-01T12:01:01.061Z,3.05
2023-02-01T12:03:57.948Z,2.92
2023-02-01T12:06:46.089Z,3.08
2023-02-01T12:09:43.337Z,3.17
2023-02-01T12:12:22.204Z,2.78
2023-02-01T12:14:51.938Z,2.88
2023-02-01T12:17:45.713Z,2.70
2023-02-01T12:20:18.460Z,2.90
2023-02-01T12:22:55.137Z,2.80
2023-02-01T12:25:31.014Z,2.60
2023-02-01T12:28:47.079Z,2.60
2023-02-01T12:31:38.682Z,2.72
2023-02-01T12:34:11.290Z,2.60
2023-02-01T12:36:54.330Z,2.40
2023-02-01T12:39:33.267Z,2.70
2023-02-01T12:42:17.118Z,2.80
2023-02-01T12:44:51.853Z,2.92
2023-02-01T12:47:25.870Z,2.80
2023-02-01T12:50:02.787Z,3.10
2023-02-01T12:52:43.639Z,3.08
2023-02-01T12:55:21.528Z,3.10
2023-02-01T12:58:15.236Z,3.63
2023-02-01T13:00:50.147Z,3.30
2023-02-01T13:03:37.138Z,3.08
2023-02-01T13:06:10.506Z,2.45
2023-02-01T13:09:05.548Z,2.17
2023-02-01T13:11:36.944Z,2.10
2023-02-01T13:14:13.224Z,2.03
2023-02-01T13:16:50.346Z,2.10
2023-02-01T13:19:34.673Z,2.03
2023-02-01T13:22:08.908Z,1.90
2023-02-01T13:25:11.908Z,2.00
2023-02-01T13:27:39.188Z,1.85
2023-02-01T13:30:21.202Z,2.22
2023-02-01T13:33:54.834Z,2.20
2023-02-01T13:36:15.774Z,2.10
2023-02-01T13:39:21.466Z,1.70
2023-02-01T13:42:05.333Z,1.70
2023-02-01T13:44:53.528Z,1.77
2023-02-01T13:47:36.575Z,1.50
2023-02-01T13:50:14.923Z,1.80
2023-02-01T13:52:45.947Z,1.60
2023-02-01T13:55:21.790Z,1.77
2023-02-01T13:57:51.133Z,1.80
2023-02-01T14:00:37.421Z,1.90
2023-02-01T14:03:10.966Z,1.70
2023-02-01T14:05:40.530Z,1.73
2023-02-01T14:08:07.362Z,1.70
2023-02-01T14:10:50.342Z,1.70
2023-02-01T14:13:39.980Z,1.80
2023-02-01T14:16:07.305Z,1.80
2023-02-01T14:18:45.308Z,1.70
2023-02-01T14:21:30.859Z,1.60
2023-02-01T14:23:59.427Z,1.80
2023-02-01T14:26:46.951Z,1.70
2023-02-01T14:29:20.797Z,1.90
2023-02-01T14:32:06.739Z,1.98
2023-02-01T14:34:49.138Z,2.13
2023-02-01T14:37:18.755Z,2.00
2023-02-01T14:39:45.493Z,1.77
2023-02-01T14:42:30.922Z,1.80
2023-02-01T14:45:20.651Z,1.80
2023-02-01T14:48:06.297Z,1.88
2023-02-01T14:50:33.450Z,2.03
2023-02-01T14:53:09.265Z,1.80
2023-02-01T14:55:47.471Z,1.92
2023-02-01T14:58:53.915Z,1.90
2023-02-01T15:01:25.072Z,1.80
2023-02-01T15:03:55.501Z,1.85
2023-02-01T15:06:40.941Z,2.10
2023-02-01T15:09:33.641Z,1.75
2023-02-01T15:12:04.658Z,2.08
2023-02-01T15:14:34.890Z,2.08
2023-02-01T15:17:02.434Z,1.85
2023-02-01T15:19:31.712Z,2.10
2023-02-01T15:21:59.763Z,2.10
2023-02-01T15:24:29.665Z,2.30
2023-02-01T15:27:04.661Z,2.42
2023-02-01T15:29:33.537Z,2.30
2023-02-01T15:32:01.172Z,2.00
2023-02-01T15:34:49.330Z,2.20
2023-02-01T15:37:19.403Z,2.50
2023-02-01T15:40:08.544Z,2.50
2023-02-01T15:42:35.916Z,2.20
2023-02-01T15:45:02.922Z,2.33
2023-02-01T15:47:32.779Z,2.42
2023-02-01T15:50:01.653Z,2.63
2023-02-01T15:52:36.452Z,2.33
2023-02-01T15:55:08.392Z,2.78
2023-02-01T15:57:41.836Z,2.90
2023-02-01T16:00:21.565Z,2.95
2023-02-01T16:03:01.221Z,2.40
2023-02-01T16:05:36.788Z,2.70
2023-02-01T16:08:24.779Z,2.53
2023-02-01T16:10:54.504Z,3.60
2023-02-01T16:13:22.126Z,2.67
2023-02-01T16:15:49.623Z,2.47
2023-02-01T16:18:18.845Z,2.50
2023-02-01T16:20:46.429Z,2.72
2023-02-01T16:23:13.600Z,2.90
2023-02-01T16:25:41.188Z,2.80
2023-02-01T16:28:09.392Z,2.58
2023-02-01T16:30:36.627Z,2.70
2023-02-01T16:33:04.033Z,2.97
2023-02-01T16:35:38.061Z,2.42
2023-02-01T16:38:13.964Z,2.40
2023-02-01T16:40:42.959Z,2.50
2023-02-01T16:43:14.829Z,2.90
2023-02-01T16:45:44.650Z,2.83
2023-02-01T16:48:25.778Z,2.75
2023-02-01T16:50:56.383Z,2.90
2023-02-01T16:53:25.441Z,2.47
2023-02-01T16:55:53.408Z,2.53
2023-02-01T16:58:21.684Z,2.03
2023-02-01T17:00:48.898Z,2.40
2023-02-01T17:03:18.940Z,2.40
2023-02-01T17:05:56.005Z,2.83
2023-02-01T17:08:41.307Z,2.70
2023-02-01T17:11:19.042Z,2.42
2023-02-01T17:13:48.023Z,2.20
2023-02-01T17:16:20.608Z,2.10
2023-02-01T17:19:03.230Z,2.30
2023-02-01T17:21:35.948Z,2.30
2023-02-01T17:24:02.779Z,2.05
2023-02-01T17:26:29.812Z,2.05
2023-02-01T17:28:59.890Z,2.00
2023-02-01T17:31:27.340Z,2.08
2023-02-01T17:33:56.647Z,2.17
2023-02-01T17:36:23.846Z,2.17
2023-02-01T17:39:03.931Z,2.10
2023-02-01T17:41:38.023Z,2.10
2023-02-01T17:44:05.742Z,1.95
2023-02-01T17:46:32.877Z,2.00
2023-02-01T17:48:59.798Z,1.85
2023-02-01T17:51:29.064Z,1.67
2023-02-01T17:53:56.227Z,2.10
2023-02-01T17:56:25.052Z,1.98
2023-02-01T17:58:52.292Z,1.80
2023-02-01T18:01:21.812Z,1.60
2023-02-01T18:03:49.253Z,1.65
2023-02-01T18:06:22.597Z,1.65
2023-02-01T18:08:49.905Z,1.60
2023-02-01T18:11:19.398Z,1.40
2023-02-01T18:13:48.922Z,1.30
2023-02-01T18:16:28.341Z,1.40
2023-02-01T18:19:01.563Z,1.27
2023-02-01T18:21:42.032Z,1.20
2023-02-01T18:24:17.391Z,1.20
2023-02-01T18:26:44.297Z,1.50
2023-02-01T18:29:11.969Z,1.38
2023-02-01T18:31:46.038Z,1.48
2023-02-01T18:34:17.185Z,1.30
2023-02-01T18:36:45.798Z,1.33
2023-02-01T18:39:12.670Z,2.30
2023-02-01T18:41:40.555Z,1.27
2023-02-01T18:44:15.000Z,1.27
2023-02-01T18:46:42.344Z,1.40
2023-02-01T18:49:09.660Z,1.25
2023-02-01T18:51:36.479Z,1.50
2023-02-01T18:54:03.484Z,1.25
2023-02-01T18:56:30.306Z,1.20
2023-02-01T18:59:00.318Z,1.10
2023-02-01T19:01:31.696Z,1.20
2023-02-01T19:04:06.676Z,1.20
2023-02-01T19:06:45.037Z,1.20
2023-02-01T19:09:11.797Z,1.30
2023-02-01T19:11:38.873Z,1.30
2023-02-01T19:14:05.720Z,1.27
2023-02-01T19:16:33.945Z,1.30
2023-02-01T19:19:00.783Z,1.40
2023-02-01T19:21:27.748Z,1.40
2023-02-01T19:23:54.549Z,1.60
2023-02-01T19:26:21.638Z,1.52
2023-02-01T19:28:49.077Z,1.30
2023-02-01T19:31:18.091Z,1.60
2023-02-01T19:33:45.194Z,1.70
2023-02-01T19:36:12.060Z,1.27
2023-02-01T19:38:39.010Z,1.20
2023-02-01T19:41:06.037Z,1.55
2023-02-01T19:43:33.001Z,1.40
2023-02-01T19:46:02.656Z,1.40
2023-02-01T19:48:31.443Z,1.45
2023-02-01T19:50:59.146Z,1.52
2023-02-01T19:53:28.047Z,1.50
2023-02-01T19:55:56.860Z,1.67
2023-02-01T19:58:26.983Z,1.50
2023-02-01T20:00:57.417Z,1.70
2023-02-01T20:03:24.312Z,1.40
2023-02-01T20:05:52.880Z,1.70
2023-02-01T20:08:20.480Z,1.58
2023-02-01T20:10:49.053Z,1.60
2023-02-01T20:13:16.345Z,1.70
2023-02-01T20:15:43.331Z,1.95
2023-02-01T20:18:10.594Z,1.67
2023-02-01T20:20:37.785Z,1.75
2023-02-01T20:23:04.528Z,1.63
2023-02-01T20:25:32.286Z,1.70
2023-02-01T20:27:59.177Z,2.00
2023-02-01T20:30:26.159Z,1.98
2023-02-01T20:32:53.015Z,2.00
2023-02-01T20:35:20.154Z,1.88
2023-02-01T20:37:47.021Z,1.63
2023-02-01T20:40:13.995Z,6.47
2023-02-01T20:42:41.680Z,2.03
2023-02-01T20:45:09.038Z,1.95
2023-02-01T20:47:36.258Z,2.08
2023-02-01T20:50:03.379Z,1.80
2023-02-01T20:52:30.185Z,1.95
2023-02-01T20:54:57.280Z,1.80
2023-02-01T20:57:24.570Z,1.77
2023-02-01T20:59:51.701Z,1.70
2023-02-01T21:02:19.057Z,1.58
2023-02-01T21:04:46.487Z,1.60
2023-02-01T21:07:14.291Z,1.50
2023-02-01T21:09:43.230Z,1.90
2023-02-01T21:12:10.221Z,1.65
2023-02-01T21:14:37.099Z,1.70
2023-02-01T21:17:03.848Z,1.70
2023-02-01T21:19:43.105Z,1.70
2023-02-01T21:22:15.058Z,1.80
2023-02-01T21:24:42.839Z,1.60
2023-02-01T21:27:11.721Z,1.55
2023-02-01T21:29:39.821Z,1.80
2023-02-01T21:32:08.150Z,1.90
2023-02-01T21:34:36.328Z,1.70
2023-02-01T21:37:03.909Z,1.60
2023-02-01T21:39:31.125Z,1.80
2023-02-01T21:42:16.952Z,2.00
2023-02-01T21:44:49.005Z,1.73
2023-02-01T21:47:19.163Z,1.77
2023-02-01T21:49:54.364Z,1.70
2023-02-01T21:52:22.950Z,1.92
2023-02-01T21:54:59.299Z,2.00
2023-02-01T21:57:29.544Z,2.03
2023-02-01T21:59:56.501Z,1.75
2023-02-01T22:02:23.243Z,1.88
2023-02-01T22:04:50.134Z,2.00
2023-02-01T22:07:17.164Z,1.98
2023-02-01T22:09:44.228Z,1.90
2023-02-01T22:12:14.575Z,2.10
2023-02-01T22:14:44.767Z,1.80
2023-02-01T22:17:14.647Z,1.90
2023-02-01T22:19:42.501Z,2.30
2023-02-01T22:22:11.557Z,1.92
2023-02-01T22:24:38.628Z,5.22
2023-02-01T22:27:14.071Z,1.98
2023-02-01T22:29:42.492Z,1.95
2023-02-01T22:32:09.787Z,2.08
2023-02-01T22:34:36.565Z,1.98
2023-02-01T22:37:03.379Z,2.05
2023-02-01T22:39:30.248Z,1.90
2023-02-01T22:41:56.897Z,2.00
2023-02-01T22:44:23.843Z,2.28
2023-02-01T22:46:50.873Z,1.95
2023-02-01T22:49:17.746Z,2.20
2023-02-01T22:51:44.526Z,2.30
2023-02-01T22:54:17.945Z,2.10
2023-02-01T22:56:44.699Z,2.20
2023-02-01T22:59:14.315Z,2.10
2023-02-01T23:01:41.640Z,2.00
2023-02-01T23:04:12.598Z,2.38
2023-02-01T23:06:39.779Z,2.65
2023-02-01T23:09:17.355Z,2.40
2023-02-01T23:11:44.573Z,2.30
2023-02-01T23:14:12.680Z,2.42
2023-02-01T23:16:41.337Z,2.63
2023-02-01T23:19:08.173Z,2.40
2023-02-01T23:21:35.269Z,2.38
2023-02-01T23:24:04.686Z,2.20
2023-02-01T23:26:32.272Z,2.63
2023-02-01T23:29:00.340Z,2.00
2023-02-01T23:31:32.506Z,1.85
2023-02-01T23:34:01.288Z,1.92
2023-02-01T23:36:29.181Z,1.58
2023-02-01T23:38:56.510Z,1.30
2023-02-01T23:41:24.390Z,1.85
2023-02-01T23:44:00.578Z,1.55
2023-02-01T23:46:49.228Z,1.42
2023-02-01T23:49:17.643Z,1.33
2023-02-01T23:51:45.258Z,1.70
2023-02-01T23:54:12.018Z,2.00
2023-02-01T23:56:41.335Z,1.90
2023-02-01T23:59:13.232Z,1.92
